Time;durP1;ratioP1;P1;durP2;ratioP2;P2;SDS_P1;SDS_P2;PMS_P1;PMS_P2;Temp;Humidity;BMP_temperature;BMP_pressure;BME280_temperature;BME280_humidity;BME280_pressure;Samples;Min_cycle;Max_cycle;Signal;HPM_P1;HPM_P2
2023/12/25 00:01:46;;;;;;;;;;;;;;;11.65;100.00;100501.16;5019476;28;19928;-69
2023/12/25 00:04:11;;;;;;;;;;;;;;;11.56;100.00;100489.78;5017956;28;20015;-69
2023/12/25 00:06:36;;;;;;;;;;;;;;;11.50;100.00;100495.84;5021127;28;19920;-69
2023/12/25 00:09:01;;;;;;;;;;;;;;;11.45;100.00;100508.88;5019708;28;20418;-69
2023/12/25 00:11:27;;;;;;;;;;;;;;;11.44;100.00;100504.56;5017919;28;20014;-69
2023/12/25 00:13:54;;;;;;;;;;;;;;;11.49;100.00;100508.31;5016459;28;19921;-71
2023/12/25 00:16:20;;;;;;;;;;;;;;;11.51;100.00;100504.63;5017329;28;19987;-70
2023/12/25 00:18:45;;;;;;;;;;;;;;;11.49;100.00;100491.53;5018580;28;19921;-68
2023/12/25 00:21:10;;;;;;;;;;;;;;;11.53;100.00;100495.47;5016473;28;19917;-70
2023/12/25 00:23:35;;;;;;;;;;;;;;;11.54;100.00;100483.00;5017659;28;19929;-69
2023/12/25 00:26:01;;;;;;;;;;;;;;;11.49;100.00;100478.22;5019349;28;19920;-69
2023/12/25 00:28:26;;;;;;;;;;;;;;;11.61;100.00;100474.09;5018540;28;19917;-69
2023/12/25 00:30:51;;;;;;;;;;;;;;;11.49;100.00;100494.19;5015923;28;19991;-70
2023/12/25 00:33:16;;;;;;;;;;;;;;;11.48;100.00;100482.72;5017567;28;20398;-69
2023/12/25 00:35:41;;;;;;;;;;;;;;;11.42;100.00;100485.31;5016713;28;19960;-69
2023/12/25 00:38:07;;;;;;;;;;;;;;;11.34;100.00;100486.25;5017142;28;19932;-69
2023/12/25 00:40:32;;;;;;;;;;;;;;;11.35;100.00;100503.00;5013583;28;19968;-70
2023/12/25 00:42:57;;;;;;;;;;;;;;;11.42;100.00;100480.81;5020338;28;19925;-69
2023/12/25 00:45:22;;;;;;;;;;;;;;;11.49;100.00;100504.81;5015888;28;19921;-69
2023/12/25 00:47:47;;;;;;;;;;;;;;;11.50;100.00;100485.19;5019590;28;20405;-71
2023/12/25 00:50:13;;;;;;;;;;;;;;;11.49;100.00;100487.03;5020914;28;19921;-69
2023/12/25 00:52:38;;;;;;;;;;;;;;;11.54;100.00;100509.59;5015747;28;19922;-69
2023/12/25 00:55:03;;;;;;;;;;;;;;;11.62;100.00;100493.56;5017992;28;20482;-69
2023/12/25 00:57:29;;;;;;;;;;;;;;;11.67;100.00;100517.75;5011942;28;20413;-69
2023/12/25 00:59:54;;;;;;;;;;;;;;;11.68;100.00;100498.13;5013682;28;20019;-69
2023/12/25 01:02:20;;;;;;;;;;;;;;;11.77;100.00;100507.63;5012460;28;20008;-70
2023/12/25 01:04:45;;;;;;;;;;;;;;;11.81;100.00;100526.75;5015074;28;19928;-69
2023/12/25 01:07:10;;;;;;;;;;;;;;;11.77;100.00;100534.25;5016575;28;19931;-69
2023/12/25 01:09:35;;;;;;;;;;;;;;;11.73;100.00;100507.19;5015154;28;19965;-71
2023/12/25 01:12:01;;;;;;;;;;;;;;;11.75;100.00;100504.34;5013094;28;19923;-70
2023/12/25 01:14:26;;;;;;;;;;;;;;;11.79;100.00;100506.47;5006569;28;19918;-70
2023/12/25 01:16:52;;;;;;;;;;;;;;;11.85;100.00;100525.34;5016461;28;19917;-69
2023/12/25 01:19:17;;;;;;;;;;;;;;;11.91;100.00;100517.47;5012156;28;19921;-69
2023/12/25 01:21:42;;;;;;;;;;;;;;;11.83;100.00;100520.22;5012257;28;19921;-69
2023/12/25 01:24:07;;;;;;;;;;;;;;;11.83;100.00;100533.53;5012403;28;20465;-69
2023/12/25 01:26:33;;;;;;;;;;;;;;;11.88;100.00;100506.38;5013763;28;19917;-69
2023/12/25 01:28:58;;;;;;;;;;;;;;;11.83;100.00;100541.50;5012330;28;19921;-69
2023/12/25 01:31:23;;;;;;;;;;;;;;;11.89;100.00;100524.81;5008256;28;20689;-69
2023/12/25 01:33:48;;;;;;;;;;;;;;;11.96;100.00;100528.38;5011351;28;19925;-70
2023/12/25 01:36:13;;;;;;;;;;;;;;;11.85;100.00;100528.00;5008811;28;19964;-69
2023/12/25 01:38:39;;;;;;;;;;;;;;;11.90;100.00;100523.81;5014896;28;20075;-70
2023/12/25 01:41:04;;;;;;;;;;;;;;;11.84;100.00;100526.38;5013455;28;19982;-70
2023/12/25 01:43:29;;;;;;;;;;;;;;;11.78;100.00;100522.63;5008138;28;20745;-69
2023/12/25 01:45:55;;;;;;;;;;;;;;;11.83;100.00;100522.88;5022092;28;19960;-70
2023/12/25 01:48:20;;;;;;;;;;;;;;;11.91;100.00;100520.13;5020317;28;20418;-69
2023/12/25 01:50:46;;;;;;;;;;;;;;;11.87;100.00;100520.69;5021591;28;20055;-69
2023/12/25 01:53:11;;;;;;;;;;;;;;;11.88;100.00;100520.50;5019083;28;20413;-69
2023/12/25 01:55:37;;;;;;;;;;;;;;;11.92;100.00;100536.91;5023990;28;20313;-69
2023/12/25 01:58:02;;;;;;;;;;;;;;;11.94;100.00;100533.06;5018611;28;20306;-70
2023/12/25 02:00:27;;;;;;;;;;;;;;;11.89;100.00;100526.66;5025314;28;19917;-69
2023/12/25 02:02:52;;;;;;;;;;;;;;;11.98;100.00;100539.66;5022732;28;20493;-70
2023/12/25 02:05:18;;;;;;;;;;;;;;;11.96;100.00;100531.03;5021645;28;20403;-69
2023/12/25 02:07:43;;;;;;;;;;;;;;;11.93;100.00;100542.06;5023476;28;20024;-69
2023/12/25 02:10:09;;;;;;;;;;;;;;;11.97;100.00;100548.66;5011598;28;19975;-69
2023/12/25 02:12:35;;;;;;;;;;;;;;;12.02;100.00;100543.59;5022568;28;19945;-68
2023/12/25 02:15:01;;;;;;;;;;;;;;;12.00;100.00;100542.13;5019069;28;19959;-69
2023/12/25 02:17:26;;;;;;;;;;;;;;;11.99;100.00;100540.47;5022769;28;19922;-69
2023/12/25 02:19:52;;;;;;;;;;;;;;;11.95;100.00;100547.19;5019526;28;19925;-69
2023/12/25 02:22:17;;;;;;;;;;;;;;;11.95;100.00;100541.88;5019269;28;19930;-69
2023/12/25 02:24:54;;;;;;;;;;;;;;;11.96;100.00;100570.13;5024082;28;19921;-69
2023/12/25 02:27:19;;;;;;;;;;;;;;;11.99;100.00;100551.94;5015401;28;19932;-69
2023/12/25 02:29:44;;;;;;;;;;;;;;;12.04;100.00;100554.03;5018141;28;19921;-69
2023/12/25 02:32:10;;;;;;;;;;;;;;;12.04;100.00;100554.88;5018932;28;19968;-69
2023/12/25 02:34:35;;;;;;;;;;;;;;;12.08;100.00;100566.78;5015445;28;19925;-70
2023/12/25 02:37:00;;;;;;;;;;;;;;;12.07;100.00;100557.16;5017206;28;19925;-69
2023/12/25 02:39:25;;;;;;;;;;;;;;;12.18;100.00;100569.16;5015617;28;19947;-69
2023/12/25 02:41:51;;;;;;;;;;;;;;;12.19;100.00;100570.81;5017322;28;19966;-70
2023/12/25 02:44:16;;;;;;;;;;;;;;;12.20;100.00;100571.66;5012639;28;19929;-69
2023/12/25 02:46:41;;;;;;;;;;;;;;;12.18;100.00;100589.66;5020869;28;19920;-69
2023/12/25 02:49:06;;;;;;;;;;;;;;;12.21;100.00;100574.13;5022043;28;19921;-69
2023/12/25 02:51:33;;;;;;;;;;;;;;;12.15;100.00;100555.41;5014020;28;20362;-69
2023/12/25 02:53:58;;;;;;;;;;;;;;;12.18;100.00;100582.47;5019134;28;19975;-68
2023/12/25 02:56:23;;;;;;;;;;;;;;;12.14;100.00;100583.84;5012520;28;19921;-69
2023/12/25 02:58:48;;;;;;;;;;;;;;;12.17;100.00;100590.66;5017789;28;19925;-69
2023/12/25 03:01:14;;;;;;;;;;;;;;;12.18;100.00;100589.66;5024012;28;19971;-69
2023/12/25 03:03:39;;;;;;;;;;;;;;;12.22;100.00;100569.63;5019067;28;20007;-69
2023/12/25 03:06:04;;;;;;;;;;;;;;;12.17;100.00;100588.81;5014227;28;19925;-68
2023/12/25 03:08:29;;;;;;;;;;;;;;;12.18;100.00;100563.03;5017696;28;19995;-69
2023/12/25 03:10:55;;;;;;;;;;;;;;;12.23;100.00;100573.94;5020296;28;19924;-69
2023/12/25 03:13:21;;;;;;;;;;;;;;;12.27;100.00;100565.38;5017166;28;19924;-69
2023/12/25 03:15:46;;;;;;;;;;;;;;;12.16;100.00;100573.03;5018889;28;19921;-69
2023/12/25 03:18:11;;;;;;;;;;;;;;;12.12;100.00;100569.91;5017417;28;19927;-69
2023/12/25 03:20:36;;;;;;;;;;;;;;;12.21;100.00;100573.28;5020699;28;19928;-69
2023/12/25 03:23:01;;;;;;;;;;;;;;;12.19;100.00;100570.00;5013809;28;19940;-69
2023/12/25 03:25:27;;;;;;;;;;;;;;;12.18;100.00;100574.50;5020741;28;19921;-71
2023/12/25 03:27:52;;;;;;;;;;;;;;;12.17;100.00;100583.50;5016410;28;20020;-70
2023/12/25 03:30:17;;;;;;;;;;;;;;;12.21;100.00;100573.28;5015997;28;19967;-70
2023/12/25 03:32:42;;;;;;;;;;;;;;;12.26;100.00;100587.69;5022915;28;20019;-70
2023/12/25 03:35:08;;;;;;;;;;;;;;;12.23;100.00;100585.41;5012760;28;19932;-69
2023/12/25 03:37:33;;;;;;;;;;;;;;;12.21;100.00;100591.94;5017364;28;19925;-69
2023/12/25 03:39:58;;;;;;;;;;;;;;;12.16;100.00;100587.16;5018711;28;20738;-70
2023/12/25 03:42:24;;;;;;;;;;;;;;;12.13;100.00;100573.38;5018145;28;19921;-69
2023/12/25 03:44:49;;;;;;;;;;;;;;;12.15;100.00;100587.34;5014140;28;19925;-69
2023/12/25 03:47:14;;;;;;;;;;;;;;;12.17;100.00;100595.97;5015341;28;19925;-69
2023/12/25 03:49:39;;;;;;;;;;;;;;;12.16;100.00;100586.34;5012639;28;20448;-69
2023/12/25 03:52:05;;;;;;;;;;;;;;;12.14;100.00;100591.81;5025522;28;19925;-70
2023/12/25 03:54:30;;;;;;;;;;;;;;;12.17;100.00;100593.31;5015785;28;19921;-69
2023/12/25 03:56:56;;;;;;;;;;;;;;;12.07;100.00;100581.09;5018165;28;19924;-69
2023/12/25 03:59:21;;;;;;;;;;;;;;;12.05;100.00;100590.28;5015509;28;19917;-68
2023/12/25 04:01:46;;;;;;;;;;;;;;;12.06;100.00;100598.09;5035496;28;19971;-69
2023/12/25 04:04:11;;;;;;;;;;;;;;;12.02;100.00;100593.31;5008907;28;19921;-69
2023/12/25 04:06:36;;;;;;;;;;;;;;;11.98;100.00;100592.06;5018243;28;19924;-68
2023/12/25 04:09:03;;;;;;;;;;;;;;;11.92;100.00;100590.97;5021455;28;19925;-69
2023/12/25 04:11:29;;;;;;;;;;;;;;;11.86;100.00;100593.56;5020052;28;19921;-69
2023/12/25 04:13:54;;;;;;;;;;;;;;;11.87;100.00;100605.84;5021462;28;19990;-69
2023/12/25 04:16:23;;;;;;;;;;;;;;;11.71;100.00;100591.66;5014055;28;20478;-69
2023/12/25 04:18:49;;;;;;;;;;;;;;;11.64;100.00;100592.59;5018895;28;20405;-69
2023/12/25 04:21:24;;;;;;;;;;;;;;;11.48;100.00;100585.59;5020380;28;19965;-69
2023/12/25 04:23:50;;;;;;;;;;;;;;;11.38;100.00;100599.19;5019615;28;20382;-69
2023/12/25 04:26:15;;;;;;;;;;;;;;;11.38;100.00;100599.19;5018389;28;19925;-69
2023/12/25 04:28:40;;;;;;;;;;;;;;;11.28;100.00;100571.22;5019418;28;19921;-69
2023/12/25 04:31:05;;;;;;;;;;;;;;;11.19;100.00;100578.44;5018203;28;19917;-69
2023/12/25 04:33:30;;;;;;;;;;;;;;;11.21;100.00;100575.59;5018749;28;20019;-69
2023/12/25 04:35:56;;;;;;;;;;;;;;;11.11;100.00;100568.72;5019023;28;19917;-69
2023/12/25 04:38:21;;;;;;;;;;;;;;;11.12;100.00;100585.47;5018382;28;19924;-68
2023/12/25 04:40:46;;;;;;;;;;;;;;;11.12;100.00;100582.81;5018450;28;19923;-69
2023/12/25 04:43:11;;;;;;;;;;;;;;;11.14;100.00;100571.00;5018330;28;20016;-69
2023/12/25 04:45:37;;;;;;;;;;;;;;;11.21;100.00;100565.78;5018242;28;19913;-68
2023/12/25 04:48:02;;;;;;;;;;;;;;;11.21;100.00;100565.78;5016833;28;19917;-68
2023/12/25 04:50:27;;;;;;;;;;;;;;;11.20;100.00;100550.00;5020187;28;19925;-69
2023/12/25 04:52:52;;;;;;;;;;;;;;;11.17;100.00;100580.44;5020485;28;19924;-69
2023/12/25 04:55:17;;;;;;;;;;;;;;;11.12;100.00;100567.69;5017088;28;19925;-69
2023/12/25 04:57:43;;;;;;;;;;;;;;;11.10;100.00;100568.88;5016581;28;19917;-69
2023/12/25 05:00:08;;;;;;;;;;;;;;;11.08;100.00;100561.09;5020715;28;20587;-68
2023/12/25 05:02:33;;;;;;;;;;;;;;;10.99;100.00;100572.00;5020038;28;20385;-69
2023/12/25 05:04:58;;;;;;;;;;;;;;;10.94;100.00;100559.22;5020255;28;19963;-69
2023/12/25 05:07:24;;;;;;;;;;;;;;;10.93;100.00;100567.38;5018898;28;19926;-68
2023/12/25 05:09:49;;;;;;;;;;;;;;;10.97;100.00;100563.34;5015988;28;19925;-68
2023/12/25 05:12:14;;;;;;;;;;;;;;;10.93;100.00;100575.34;5013700;28;19920;-69
2023/12/25 05:14:39;;;;;;;;;;;;;;;10.87;100.00;100558.28;5017947;28;19928;-69
2023/12/25 05:17:04;;;;;;;;;;;;;;;10.84;100.00;100562.13;5016502;28;19925;-68
2023/12/25 05:19:30;;;;;;;;;;;;;;;10.80;100.00;100563.50;5019252;28;20422;-69
2023/12/25 05:21:55;;;;;;;;;;;;;;;10.77;100.00;100561.22;5015703;28;19929;-70
2023/12/25 05:24:20;;;;;;;;;;;;;;;10.72;100.00;100563.56;5018000;28;19975;-69
2023/12/25 05:26:45;;;;;;;;;;;;;;;10.71;100.00;100561.09;5016966;28;19983;-69
2023/12/25 05:29:10;;;;;;;;;;;;;;;10.69;100.00;100565.75;5017612;28;19988;-69
2023/12/25 05:31:36;;;;;;;;;;;;;;;10.68;100.00;100559.59;5020593;28;19921;-68
2023/12/25 05:34:01;;;;;;;;;;;;;;;10.69;100.00;100566.56;5018268;28;19917;-69
2023/12/25 05:36:26;;;;;;;;;;;;;;;10.70;100.00;100564.75;5018119;28;19925;-69
2023/12/25 05:38:52;;;;;;;;;;;;;;;10.71;100.00;100567.25;5020879;28;20016;-69
2023/12/25 05:41:18;;;;;;;;;;;;;;;10.71;100.00;100569.06;5015711;28;19921;-69
2023/12/25 05:43:43;;;;;;;;;;;;;;;10.69;100.00;100571.03;5019653;28;19921;-69
2023/12/25 05:46:08;;;;;;;;;;;;;;;10.72;100.00;100576.84;5020583;28;19928;-69
2023/12/25 05:48:33;;;;;;;;;;;;;;;10.68;100.00;100562.25;5020441;28;19933;-68
2023/12/25 05:50:59;;;;;;;;;;;;;;;10.67;100.00;100559.78;5020626;28;20015;-68
2023/12/25 05:53:25;;;;;;;;;;;;;;;10.68;100.00;100566.75;5017979;28;19921;-69
2023/12/25 05:55:50;;;;;;;;;;;;;;;10.65;100.00;100567.94;5022316;28;20818;-70
2023/12/25 05:58:15;;;;;;;;;;;;;;;10.66;100.00;100566.91;5020509;28;20446;-69
2023/12/25 06:00:40;;;;;;;;;;;;;;;10.69;100.00;100577.19;5020007;28;19928;-71
2023/12/25 06:03:06;;;;;;;;;;;;;;;10.71;100.00;100580.53;5020264;28;19931;-68
2023/12/25 06:05:31;;;;;;;;;;;;;;;10.72;100.00;100579.50;5021965;28;20356;-69
2023/12/25 06:07:56;;;;;;;;;;;;;;;10.71;100.00;100564.59;5022888;28;19979;-69
2023/12/25 06:10:22;;;;;;;;;;;;;;;10.73;100.00;100578.50;5019882;28;20345;-69
2023/12/25 06:12:47;;;;;;;;;;;;;;;10.68;100.00;100570.22;5018558;28;19920;-68
2023/12/25 06:15:13;;;;;;;;;;;;;;;10.71;100.00;100563.75;5022049;28;19921;-69
2023/12/25 06:17:38;;;;;;;;;;;;;;;10.75;100.00;100575.69;5022521;28;19968;-68
2023/12/25 06:20:04;;;;;;;;;;;;;;;10.77;100.00;100581.63;5022498;28;19920;-69
2023/12/25 06:22:29;;;;;;;;;;;;;;;10.73;100.00;100569.72;5020154;28;19967;-68
2023/12/25 06:24:55;;;;;;;;;;;;;;;10.71;100.00;100569.91;5019761;28;20372;-69
2023/12/25 06:27:21;;;;;;;;;;;;;;;10.71;100.00;100556.63;5016967;28;19925;-68
2023/12/25 06:29:46;;;;;;;;;;;;;;;10.71;100.00;100551.31;5017841;28;19983;-69
2023/12/25 06:32:12;;;;;;;;;;;;;;;10.71;100.00;100556.63;5020495;28;19925;-68
2023/12/25 06:34:37;;;;;;;;;;;;;;;10.73;100.00;100585.66;5017519;28;19917;-68
2023/12/25 06:37:03;;;;;;;;;;;;;;;10.67;100.00;100612.91;5021213;28;19921;-68
2023/12/25 06:39:28;;;;;;;;;;;;;;;10.67;100.00;100611.06;5020074;28;19924;-68
2023/12/25 06:41:53;;;;;;;;;;;;;;;10.41;100.00;100610.59;5013085;28;19936;-68
2023/12/25 06:44:19;;;;;;;;;;;;;;;10.17;100.00;100591.13;5018070;28;19921;-68
2023/12/25 06:46:44;;;;;;;;;;;;;;;10.04;100.00;100601.44;5011370;28;19921;-68
2023/12/25 06:49:09;;;;;;;;;;;;;;;9.95;100.00;100610.44;5016157;28;19925;-68
2023/12/25 06:51:34;;;;;;;;;;;;;;;9.80;100.00;100615.63;5020567;28;19927;-68
2023/12/25 06:54:00;;;;;;;;;;;;;;;9.75;100.00;100614.50;5016303;28;19921;-68
2023/12/25 06:56:25;;;;;;;;;;;;;;;9.64;100.00;100621.00;5015453;28;19917;-68
2023/12/25 06:58:50;;;;;;;;;;;;;;;9.58;100.00;100616.38;5020954;28;19924;-68
2023/12/25 07:01:20;;;;;;;;;;;;;;;9.48;100.00;100613.88;5017648;28;19928;-68
2023/12/25 07:03:45;;;;;;;;;;;;;;;9.44;100.00;100601.97;5010767;28;20395;-68
2023/12/25 07:06:10;;;;;;;;;;;;;;;9.46;100.00;100607.09;5008321;28;19971;-68
2023/12/25 07:08:37;;;;;;;;;;;;;;;9.38;100.00;100618.56;5020837;28;19947;-68
2023/12/25 07:11:02;;;;;;;;;;;;;;;9.36;100.00;100622.38;5020986;28;19921;-68
2023/12/25 07:13:27;;;;;;;;;;;;;;;9.37;100.00;100622.22;5018221;28;19984;-68
2023/12/25 07:15:52;;;;;;;;;;;;;;;9.35;100.00;100624.19;5015768;28;20009;-68
2023/12/25 07:18:18;;;;;;;;;;;;;;;9.35;100.00;100624.19;5018067;28;19921;-68
2023/12/25 07:20:43;;;;;;;;;;;;;;;9.34;100.00;100627.00;5021316;28;19925;-68
2023/12/25 07:23:08;;;;;;;;;;;;;;;9.31;100.00;100633.47;5018019;28;19933;-68
2023/12/25 07:25:33;;;;;;;;;;;;;;;9.25;100.00;100623.53;5021579;28;19921;-68
2023/12/25 07:27:59;;;;;;;;;;;;;;;9.28;100.00;100639.94;5017505;28;19931;-69
2023/12/25 07:30:24;;;;;;;;;;;;;;;9.28;100.00;100639.13;5013741;28;19925;-68
2023/12/25 07:32:49;;;;;;;;;;;;;;;9.28;100.00;100641.78;5010074;28;19932;-68
2023/12/25 07:35:14;;;;;;;;;;;;;;;9.27;100.00;100645.41;5017359;28;19948;-68
2023/12/25 07:37:39;;;;;;;;;;;;;;;9.27;100.00;100650.72;5023357;28;19921;-68
2023/12/25 07:40:05;;;;;;;;;;;;;;;9.27;100.00;100653.38;5022795;28;19928;-68
2023/12/25 07:42:31;;;;;;;;;;;;;;;9.26;100.00;100641.94;5017391;28;19921;-68
2023/12/25 07:44:56;;;;;;;;;;;;;;;9.28;100.00;100645.25;5019276;28;19982;-68
2023/12/25 07:47:21;;;;;;;;;;;;;;;9.27;100.00;100654.19;5021134;28;19924;-68
2023/12/25 07:49:47;;;;;;;;;;;;;;;9.29;100.00;100654.84;5019116;28;19917;-68
2023/12/25 07:52:12;;;;;;;;;;;;;;;9.30;100.00;100653.03;5021324;28;19925;-68
2023/12/25 07:54:37;;;;;;;;;;;;;;;9.33;100.00;100660.63;5021362;28;20416;-68
2023/12/25 07:57:02;;;;;;;;;;;;;;;9.37;100.00;100666.44;5019352;28;20395;-69
2023/12/25 07:59:27;;;;;;;;;;;;;;;9.31;100.00;100675.88;5019591;28;19928;-68
2023/12/25 08:01:53;;;;;;;;;;;;;;;9.35;100.00;100677.19;5017386;28;19928;-68
2023/12/25 08:04:18;;;;;;;;;;;;;;;9.33;100.00;100671.25;5019331;28;19973;-68
2023/12/25 08:06:43;;;;;;;;;;;;;;;9.33;100.00;100673.88;5020721;28;19925;-68
2023/12/25 08:09:09;;;;;;;;;;;;;;;9.32;100.00;100670.41;5020430;28;20754;-68
2023/12/25 08:11:35;;;;;;;;;;;;;;;9.31;100.00;100676.72;5019561;28;20641;-68
2023/12/25 08:14:00;;;;;;;;;;;;;;;9.37;100.00;100674.38;5016195;28;19917;-68
2023/12/25 08:16:25;;;;;;;;;;;;;;;9.36;100.00;100678.03;5016477;28;19932;-68
2023/12/25 08:18:50;;;;;;;;;;;;;;;9.36;100.00;100680.69;5019474;28;19921;-68
2023/12/25 08:21:17;;;;;;;;;;;;;;;9.31;100.00;100692.59;5009396;28;19976;-68
2023/12/25 08:23:42;;;;;;;;;;;;;;;9.34;100.00;100691.44;5017473;28;19979;-68
2023/12/25 08:26:07;;;;;;;;;;;;;;;9.34;100.00;100686.16;5019790;28;19960;-68
2023/12/25 08:28:32;;;;;;;;;;;;;;;9.31;100.00;100686.47;5021797;28;19921;-68
2023/12/25 08:30:58;;;;;;;;;;;;;;;9.30;100.00;100695.44;5015898;28;19922;-69
2023/12/25 08:33:23;;;;;;;;;;;;;;;9.35;100.00;100690.44;5014091;28;19980;-68
2023/12/25 08:35:48;;;;;;;;;;;;;;;9.35;100.00;100681.66;5022193;28;19928;-68
2023/12/25 08:38:13;;;;;;;;;;;;;;;9.35;100.00;100692.28;5016776;28;19924;-68
2023/12/25 08:40:39;;;;;;;;;;;;;;;9.35;100.00;100698.41;5006875;28;19933;-68
2023/12/25 08:43:05;;;;;;;;;;;;;;;9.34;100.00;100701.22;5023129;28;19979;-69
2023/12/25 08:45:30;;;;;;;;;;;;;;;9.32;100.00;100709.34;5013976;28;19921;-68
2023/12/25 08:47:55;;;;;;;;;;;;;;;9.29;100.00;100710.50;5016954;28;19936;-68
2023/12/25 08:50:20;;;;;;;;;;;;;;;9.31;100.00;100711.16;5021846;28;19924;-68
2023/12/25 08:52:46;;;;;;;;;;;;;;;9.33;100.00;100716.28;5009223;28;19921;-69
2023/12/25 08:55:11;;;;;;;;;;;;;;;9.30;100.00;100712.16;5011461;28;20007;-69
2023/12/25 08:57:36;;;;;;;;;;;;;;;9.29;100.00;100707.03;5014630;28;19972;-68
2023/12/25 09:00:03;;;;;;;;;;;;;;;9.30;100.00;100703.38;5021889;28;19925;-68
2023/12/25 09:02:28;;;;;;;;;;;;;;;9.28;100.00;100692.94;5020654;28;20337;-68
2023/12/25 09:04:53;;;;;;;;;;;;;;;9.30;100.00;100706.03;5021949;28;19947;-68
2023/12/25 09:07:18;;;;;;;;;;;;;;;9.32;100.00;100701.38;5020195;28;19921;-68
2023/12/25 09:09:43;;;;;;;;;;;;;;;9.34;100.00;100717.13;5019589;28;19928;-68
2023/12/25 09:12:09;;;;;;;;;;;;;;;9.36;100.00;100729.22;5017157;28;19929;-69
2023/12/25 09:14:34;;;;;;;;;;;;;;;9.35;100.00;100735.50;5019991;28;19921;-69
2023/12/25 09:16:59;;;;;;;;;;;;;;;9.36;100.00;100742.47;5017359;28;19960;-68
2023/12/25 09:19:24;;;;;;;;;;;;;;;9.35;100.00;100729.38;5019539;28;19925;-68
2023/12/25 09:21:50;;;;;;;;;;;;;;;9.37;100.00;100730.88;5017311;28;19921;-69
2023/12/25 09:24:15;;;;;;;;;;;;;;;9.39;100.00;100746.59;5017239;28;19925;-68
2023/12/25 09:26:40;;;;;;;;;;;;;;;9.39;100.00;100743.94;5018459;28;19921;-68
2023/12/25 09:29:09;;;;;;;;;;;;;;;9.42;100.00;100762.16;5019153;28;19955;-68
2023/12/25 09:31:34;;;;;;;;;;;;;;;9.41;100.00;100768.47;5016511;28;19921;-68
2023/12/25 09:34:00;;;;;;;;;;;;;;;9.42;100.00;100772.78;5014220;28;19996;-68
2023/12/25 09:36:26;;;;;;;;;;;;;;;9.46;100.00;100772.28;5015171;28;19925;-68
2023/12/25 09:38:51;;;;;;;;;;;;;;;9.44;100.00;100776.91;5019570;28;19921;-68
2023/12/25 09:41:16;;;;;;;;;;;;;;;9.45;100.00;100767.97;5021779;28;19952;-68
2023/12/25 09:43:43;;;;;;;;;;;;;;;9.50;100.00;100770.94;5017096;28;19933;-69
2023/12/25 09:46:12;;;;;;;;;;;;;;;9.47;100.00;100758.03;5015476;28;19921;-68
2023/12/25 09:48:38;;;;;;;;;;;;;;;9.51;100.00;100746.09;5012748;28;19925;-68
2023/12/25 09:51:05;;;;;;;;;;;;;;;9.50;100.00;100747.09;5020686;28;20953;-68
2023/12/25 09:53:30;;;;;;;;;;;;;;;9.50;100.00;100760.34;5015820;28;19922;-68
2023/12/25 09:55:57;;;;;;;;;;;;;;;9.52;100.00;100752.22;5020496;28;19929;-68
2023/12/25 09:58:22;;;;;;;;;;;;;;;9.53;100.00;100748.56;5017744;28;19921;-68
2023/12/25 10:00:47;;;;;;;;;;;;;;;9.48;100.00;100761.50;5011933;28;20309;-69
2023/12/25 10:03:13;;;;;;;;;;;;;;;9.45;100.00;100754.72;5015813;28;19925;-68
2023/12/25 10:05:38;;;;;;;;;;;;;;;9.51;100.00;100750.56;5010309;28;19925;-68
2023/12/25 10:08:03;;;;;;;;;;;;;;;9.50;100.00;100756.88;5024848;28;19931;-68
2023/12/25 10:10:29;;;;;;;;;;;;;;;9.48;100.00;100762.34;5014680;28;19964;-68
2023/12/25 10:12:55;;;;;;;;;;;;;;;9.47;100.00;100779.22;5013041;28;19921;-68
2023/12/25 10:15:21;;;;;;;;;;;;;;;9.48;100.00;100778.22;5012685;28;19921;-68
2023/12/25 10:17:47;;;;;;;;;;;;;;;9.45;100.00;100791.00;5013811;28;19932;-68
2023/12/25 10:20:17;;;;;;;;;;;;;;;9.50;100.00;100786.84;5017878;28;19987;-68
2023/12/25 10:22:43;;;;;;;;;;;;;;;9.41;100.00;100784.38;5016207;28;20532;-68
2023/12/25 10:25:09;;;;;;;;;;;;;;;9.41;100.00;100779.91;5018178;28;19924;-68
2023/12/25 10:27:36;;;;;;;;;;;;;;;9.34;100.00;100778.91;5014601;28;20376;-69
2023/12/25 10:30:05;;;;;;;;;;;;;;;9.38;100.00;100769.63;5016328;28;19917;-69
2023/12/25 10:32:31;;;;;;;;;;;;;;;9.29;100.00;100782.03;5025356;28;20712;-68
2023/12/25 10:35:11;;;;;;;;;;;;;;;9.28;100.00;100782.22;5018478;28;21606;-68
2023/12/25 10:37:37;;;;;;;;;;;;;;;9.24;100.00;100792.28;5020015;28;19925;-68
2023/12/25 10:40:17;;;;;;;;;;;;;;;9.24;100.00;100786.16;5013123;28;19956;-68
2023/12/25 10:42:42;;;;;;;;;;;;;;;9.27;100.00;100777.91;5014761;28;19925;-68
2023/12/25 10:45:08;;;;;;;;;;;;;;;9.26;100.00;100777.06;5011727;28;21895;-69
2023/12/25 10:47:33;;;;;;;;;;;;;;;9.19;100.00;100775.22;5016308;28;19972;-68
2023/12/25 10:49:59;;;;;;;;;;;;;;;9.20;100.00;100775.06;5019438;28;19921;-68
2023/12/25 10:52:24;;;;;;;;;;;;;;;9.20;100.00;100769.75;5017655;28;20023;-68
2023/12/25 10:54:50;;;;;;;;;;;;;;;9.23;100.00;100758.00;5016562;28;20019;-68
2023/12/25 10:57:16;;;;;;;;;;;;;;;9.24;100.00;100771.09;5018409;28;21409;-68
2023/12/25 10:59:42;;;;;;;;;;;;;;;9.22;100.00;100766.94;5022590;28;19921;-68
2023/12/25 11:02:10;;;;;;;;;;;;;;;9.27;100.00;100769.97;5020936;28;19921;-69
2023/12/25 11:04:36;;;;;;;;;;;;;;;9.27;100.00;100769.97;5015939;28;19967;-68
2023/12/25 11:07:03;;;;;;;;;;;;;;;9.30;100.00;100775.75;5019901;28;19925;-69
2023/12/25 11:09:28;;;;;;;;;;;;;;;9.27;100.00;100780.56;5022170;28;19928;-68
2023/12/25 11:11:54;;;;;;;;;;;;;;;9.18;100.00;100779.69;5017678;28;19921;-70
2023/12/25 11:14:19;;;;;;;;;;;;;;;9.23;100.00;100789.78;5016427;28;20448;-68
2023/12/25 11:16:45;;;;;;;;;;;;;;;9.20;100.00;100787.47;5016854;28;20586;-69
2023/12/25 11:19:10;;;;;;;;;;;;;;;9.20;100.00;100785.66;5019954;28;20290;-68
2023/12/25 11:21:35;;;;;;;;;;;;;;;9.17;100.00;100775.38;5016096;28;19964;-69
2023/12/25 11:24:02;;;;;;;;;;;;;;;9.21;100.00;100776.72;5012692;28;19925;-69
2023/12/25 11:26:28;;;;;;;;;;;;;;;9.20;100.00;100776.88;5020664;28;19925;-68
2023/12/25 11:28:58;;;;;;;;;;;;;;;9.19;100.00;100767.28;5012301;28;19927;-68
2023/12/25 11:31:23;;;;;;;;;;;;;;;9.23;100.00;100771.25;5016811;28;20410;-69
2023/12/25 11:33:48;;;;;;;;;;;;;;;9.23;100.00;100781.84;5023240;28;19921;-68
2023/12/25 11:36:15;;;;;;;;;;;;;;;9.27;100.00;100778.72;5012734;28;20298;-69
2023/12/25 11:38:45;;;;;;;;;;;;;;;9.32;100.00;100783.53;5019243;28;20673;-68
2023/12/25 11:41:18;;;;;;;;;;;;;;;9.30;100.00;100783.69;5019427;28;19921;-68
2023/12/25 11:43:43;;;;;;;;;;;;;;;9.27;100.00;100784.03;5011453;28;19926;-69
2023/12/25 11:46:14;;;;;;;;;;;;;;;9.30;100.00;100781.06;5018305;28;19959;-69
2023/12/25 11:48:40;;;;;;;;;;;;;;;9.32;100.00;100778.25;5016548;28;20487;-68
2023/12/25 11:51:20;;;;;;;;;;;;;;;9.35;100.00;100783.22;5018757;28;19921;-68
2023/12/25 11:53:46;;;;;;;;;;;;;;;9.35;100.00;100774.44;5015839;28;19920;-68
2023/12/25 11:56:11;;;;;;;;;;;;;;;9.27;100.00;100778.72;5010864;28;19995;-69
2023/12/25 11:58:37;;;;;;;;;;;;;;;9.29;100.00;100775.91;5014227;28;19925;-68
2023/12/25 12:01:03;;;;;;;;;;;;;;;9.27;100.00;100780.56;5012618;28;20003;-69
2023/12/25 12:03:28;;;;;;;;;;;;;;;9.29;100.00;100778.56;5016239;28;20318;-68
2023/12/25 12:05:54;;;;;;;;;;;;;;;9.31;100.00;100780.06;5012095;28;19922;-68
2023/12/25 12:08:20;;;;;;;;;;;;;;;9.31;100.00;100787.19;5021865;28;19982;-69
2023/12/25 12:10:45;;;;;;;;;;;;;;;9.32;100.00;100778.25;5016203;28;19932;-68
2023/12/25 12:13:10;;;;;;;;;;;;;;;9.31;100.00;100771.28;5021660;28;19925;-68
2023/12/25 12:15:36;;;;;;;;;;;;;;;9.34;100.00;100776.25;5016802;28;19929;-68
2023/12/25 12:18:01;;;;;;;;;;;;;;;9.37;100.00;100764.50;5020068;28;19921;-68
2023/12/25 12:20:28;;;;;;;;;;;;;;;9.34;100.00;100757.69;5020286;28;20458;-68
2023/12/25 12:22:53;;;;;;;;;;;;;;;9.38;100.00;100772.28;5018782;28;19971;-68